Time;durP1;ratioP1;P1;durP2;ratioP2;P2;SDS_P1;SDS_P2;PMS_P1;PMS_P2;Temp;Humidity;BMP_temperature;BMP_pressure;BME280_temperature;BME280_humidity;BME280_pressure;Samples;Min_cycle;Max_cycle;Signal;HPM_P1;HPM_P2
2022/08/31 00:05:29;;;;;;;4.38;3.60;;;;;;;;;;6276261;28;20112;-61
2022/08/31 00:08:32;;;;;;;5.63;3.30;;;;;;;;;;6277748;28;20060;-61
2022/08/31 00:11:34;;;;;;;5.40;3.63;;;;;;;;;;6275503;28;20385;-61
2022/08/31 00:14:36;;;;;;;4.78;3.53;;;;;;;;;;6274884;28;20051;-61
2022/08/31 00:17:38;;;;;;;3.95;3.20;;;;;;;;;;6277935;28;20052;-61
2022/08/31 00:20:40;;;;;;;6.22;3.25;;;;;;;;;;6276336;28;20040;-61
2022/08/31 00:23:43;;;;;;;3.88;3.38;;;;;;;;;;6275923;28;21101;-62
2022/08/31 00:26:44;;;;;;;4.47;3.58;;;;;;;;;;6274536;28;20050;-62
2022/08/31 00:29:46;;;;;;;5.00;3.85;;;;;;;;;;6277818;28;20328;-62
2022/08/31 00:32:48;;;;;;;4.93;3.80;;;;;;;;;;6274365;28;20053;-62
2022/08/31 00:35:49;;;;;;;5.50;3.75;;;;;;;;;;6275780;28;20052;-62
2022/08/31 00:38:53;;;;;;;4.50;3.53;;;;;;;;;;6275421;28;20220;-62
2022/08/31 00:41:55;;;;;;;4.47;3.80;;;;;;;;;;6274211;28;20061;-62
2022/08/31 00:44:56;;;;;;;4.88;4.28;;;;;;;;;;6277018;28;20071;-61
2022/08/31 00:47:58;;;;;;;8.48;4.18;;;;;;;;;;6280474;28;20050;-62
2022/08/31 00:51:00;;;;;;;5.18;4.00;;;;;;;;;;6280732;28;20052;-63
2022/08/31 00:54:04;;;;;;;6.18;4.68;;;;;;;;;;6279394;28;20059;-62
2022/08/31 00:57:05;;;;;;;;;;;;;;;;;;6279782;28;20378;-62
2022/08/31 01:00:10;;;;;;;4.82;3.72;;;;;;;;;;6279125;28;19920;-62
2022/08/31 01:03:12;;;;;;;5.07;4.10;;;;;;;;;;6281111;28;20090;-62
2022/08/31 01:06:14;;;;;;;6.00;4.85;;;;;;;;;;6281414;28;20056;-61
2022/08/31 01:09:17;;;;;;;6.60;4.90;;;;;;;;;;6277816;28;20065;-62
2022/08/31 01:12:18;;;;;;;;;;;;;;;;;;6276537;28;20095;-62
2022/08/31 01:15:21;;;;;;;8.55;5.75;;;;;;;;;;6282106;28;20435;-62
2022/08/31 01:18:23;;;;;;;6.75;5.68;;;;;;;;;;6281474;28;20317;-62
2022/08/31 01:21:29;;;;;;;7.55;5.72;;;;;;;;;;6281545;28;20053;-62
2022/08/31 01:24:32;;;;;;;8.38;7.03;;;;;;;;;;6274429;28;20048;-62
2022/08/31 01:27:36;;;;;;;7.05;6.35;;;;;;;;;;6281371;28;20627;-62
2022/08/31 01:30:38;;;;;;;7.75;6.28;;;;;;;;;;6281238;28;20087;-62
2022/08/31 01:33:40;;;;;;;6.80;6.07;;;;;;;;;;6279885;28;20438;-62
2022/08/31 01:36:43;;;;;;;7.95;5.78;;;;;;;;;;6276486;28;20102;-62
2022/08/31 01:39:46;;;;;;;;;;;;;;;;;;6279115;28;20049;-62
2022/08/31 01:42:48;;;;;;;9.23;6.90;;;;;;;;;;6279854;28;19928;-63
2022/08/31 01:45:49;;;;;;;11.65;9.40;;;;;;;;;;6277290;28;20045;-60
2022/08/31 01:48:52;;;;;;;10.95;8.70;;;;;;;;;;6278784;28;20049;-60
2022/08/31 01:51:54;;;;;;;9.15;8.20;;;;;;;;;;6277408;28;20059;-62
2022/08/31 01:54:57;;;;;;;13.18;9.25;;;;;;;;;;6278049;28;20217;-62
2022/08/31 01:57:59;;;;;;;11.93;9.07;;;;;;;;;;6277720;28;20086;-60
2022/08/31 02:01:01;;;;;;;12.10;10.30;;;;;;;;;;6276252;28;20096;-61
2022/08/31 02:04:05;;;;;;;11.23;9.43;;;;;;;;;;6277856;28;20056;-62
2022/08/31 02:07:07;;;;;;;11.50;9.45;;;;;;;;;;6279083;28;20382;-60
2022/08/31 02:10:10;;;;;;;11.75;9.48;;;;;;;;;;6276699;28;20068;-62
2022/08/31 02:13:11;;;;;;;11.93;9.00;;;;;;;;;;6278628;28;20057;-61
2022/08/31 02:16:13;;;;;;;13.90;9.98;;;;;;;;;;6278474;28;20095;-61
2022/08/31 02:19:15;;;;;;;11.98;10.43;;;;;;;;;;6278301;28;20087;-61
2022/08/31 02:22:17;;;;;;;12.10;10.48;;;;;;;;;;6278767;28;20057;-61
2022/08/31 02:25:20;;;;;;;12.85;9.98;;;;;;;;;;6277060;28;20275;-62
2022/08/31 02:28:22;;;;;;;12.35;9.60;;;;;;;;;;6278599;28;20107;-61
2022/08/31 02:31:23;;;;;;;12.60;10.43;;;;;;;;;;6277932;28;20213;-61
2022/08/31 02:34:25;;;;;;;10.80;9.60;;;;;;;;;;6279195;28;20303;-61
2022/08/31 02:37:26;;;;;;;12.02;9.82;;;;;;;;;;6276891;28;20095;-61
2022/08/31 02:40:29;;;;;;;11.60;9.77;;;;;;;;;;6276187;28;20102;-59
2022/08/31 02:43:31;;;;;;;11.10;9.07;;;;;;;;;;6280751;28;20060;-63
2022/08/31 02:46:33;;;;;;;14.43;10.52;;;;;;;;;;6278913;28;20245;-60
2022/08/31 02:49:34;;;;;;;15.98;12.30;;;;;;;;;;6277924;28;20052;-60
2022/08/31 02:52:36;;;;;;;15.95;11.63;;;;;;;;;;6281678;28;20354;-61
2022/08/31 02:55:39;;;;;;;13.85;10.32;;;;;;;;;;6277415;28;20203;-61
2022/08/31 02:58:42;;;;;;;17.35;13.45;;;;;;;;;;6273666;28;20336;-61
2022/08/31 03:01:43;;;;;;;16.17;13.65;;;;;;;;;;6278192;28;20765;-62
2022/08/31 03:04:45;;;;;;;16.67;13.50;;;;;;;;;;6278771;28;20036;-62
2022/08/31 03:07:48;;;;;;;14.38;12.13;;;;;;;;;;6278573;28;20103;-61
2022/08/31 03:10:52;;;;;;;13.73;11.23;;;;;;;;;;6274563;28;20052;-62
2022/08/31 03:13:54;;;;;;;13.13;10.80;;;;;;;;;;6276560;28;20041;-61
2022/08/31 03:16:55;;;;;;;12.10;10.50;;;;;;;;;;6278450;28;20057;-61
2022/08/31 03:19:59;;;;;;;12.85;9.40;;;;;;;;;;6278285;28;20040;-61
2022/08/31 03:23:01;;;;;;;11.07;9.23;;;;;;;;;;6276307;28;20044;-61
2022/08/31 03:26:05;;;;;;;12.35;10.40;;;;;;;;;;6276353;28;20064;-61
2022/08/31 03:29:06;;;;;;;11.40;9.88;;;;;;;;;;6275927;28;20044;-61
2022/08/31 03:32:08;;;;;;;12.32;10.27;;;;;;;;;;6277198;28;20055;-61
2022/08/31 03:35:09;;;;;;;13.10;10.40;;;;;;;;;;6276938;28;20053;-61
2022/08/31 03:38:12;;;;;;;14.05;10.60;;;;;;;;;;6275426;28;20138;-62
2022/08/31 03:41:16;;;;;;;12.00;10.40;;;;;;;;;;6275791;28;20056;-63
2022/08/31 03:44:22;;;;;;;15.30;11.27;;;;;;;;;;6276749;28;20052;-61
2022/08/31 03:47:24;;;;;;;12.40;10.65;;;;;;;;;;6276471;28;20092;-62
2022/08/31 03:50:25;;;;;;;12.65;11.32;;;;;;;;;;6268888;28;20060;-63
2022/08/31 03:53:27;;;;;;;13.70;11.00;;;;;;;;;;6271704;28;20114;-61
2022/08/31 03:56:31;;;;;;;15.02;12.02;;;;;;;;;;6271723;28;20091;-61
2022/08/31 03:59:32;;;;;;;13.55;11.75;;;;;;;;;;6273109;28;20244;-61
2022/08/31 04:02:37;;;;;;;13.60;11.73;;;;;;;;;;6271694;28;20049;-61
2022/08/31 04:05:43;;;;;;;17.60;12.70;;;;;;;;;;6272791;28;20110;-61
2022/08/31 04:08:44;;;;;;;15.55;12.75;;;;;;;;;;6276854;28;20120;-62
2022/08/31 04:11:47;;;;;;;15.45;12.25;;;;;;;;;;6275850;28;20053;-62
2022/08/31 04:14:49;;;;;;;16.30;12.27;;;;;;;;;;6275734;28;20115;-61
2022/08/31 04:17:51;;;;;;;14.45;11.35;;;;;;;;;;6276354;28;20119;-60
2022/08/31 04:20:52;;;;;;;16.92;11.82;;;;;;;;;;6278063;28;20045;-61
2022/08/31 04:23:56;;;;;;;15.50;12.00;;;;;;;;;;6280717;28;20576;-61
2022/08/31 04:26:58;;;;;;;;;;;;;;;;;;6280811;28;20275;-61
2022/08/31 04:30:00;;;;;;;15.27;11.82;;;;;;;;;;6281468;28;19923;-61
2022/08/31 04:33:03;;;;;;;11.82;9.90;;;;;;;;;;6281673;28;20237;-61
2022/08/31 04:36:06;;;;;;;12.23;9.27;;;;;;;;;;6279695;28;20231;-61
2022/08/31 04:39:08;;;;;;;11.85;8.70;;;;;;;;;;6281787;28;20052;-62
2022/08/31 04:42:11;;;;;;;11.70;8.55;;;;;;;;;;6280462;28;20311;-61
2022/08/31 04:45:14;;;;;;;12.43;8.30;;;;;;;;;;6279298;28;20072;-61
2022/08/31 04:48:15;;;;;;;10.40;8.52;;;;;;;;;;6279148;28;20053;-61
2022/08/31 04:51:22;;;;;;;11.23;8.70;;;;;;;;;;6278865;28;20053;-61
2022/08/31 04:54:23;;;;;;;10.38;8.48;;;;;;;;;;6279593;28;20041;-61
2022/08/31 04:57:26;;;;;;;10.00;8.13;;;;;;;;;;6279498;28;20060;-61
2022/08/31 05:00:28;;;;;;;12.25;8.88;;;;;;;;;;6279651;28;20044;-61
2022/08/31 05:03:30;;;;;;;15.27;9.45;;;;;;;;;;6279863;28;20095;-61
2022/08/31 05:06:34;;;;;;;11.95;8.70;;;;;;;;;;6278749;28;20053;-63
2022/08/31 05:09:35;;;;;;;11.95;8.63;;;;;;;;;;6278968;28;20048;-62
2022/08/31 05:12:38;;;;;;;10.10;8.32;;;;;;;;;;6276832;28;20049;-61
2022/08/31 05:15:42;;;;;;;12.63;9.63;;;;;;;;;;6278663;28;20053;-62
2022/08/31 05:18:44;;;;;;;;;;;;;;;;;;6279637;28;20102;-62
2022/08/31 05:21:46;;;;;;;11.35;8.38;;;;;;;;;;6279950;28;19936;-63
2022/08/31 05:24:48;;;;;;;13.65;8.60;;;;;;;;;;6280370;28;20336;-62
2022/08/31 05:27:52;;;;;;;10.38;8.65;;;;;;;;;;6278394;28;20057;-64
2022/08/31 05:30:53;;;;;;;8.93;7.90;;;;;;;;;;6276945;28;20045;-60
2022/08/31 05:33:55;;;;;;;10.50;7.63;;;;;;;;;;6275808;28;20045;-62
2022/08/31 05:36:57;;;;;;;11.02;7.55;;;;;;;;;;6278904;28;20060;-62
2022/08/31 05:39:59;;;;;;;9.50;6.60;;;;;;;;;;6278688;28;20064;-62
2022/08/31 05:43:01;;;;;;;8.88;6.40;;;;;;;;;;6277705;28;20099;-62
2022/08/31 05:46:05;;;;;;;9.23;6.15;;;;;;;;;;6276873;28;20364;-61
2022/08/31 05:49:08;;;;;;;10.65;6.53;;;;;;;;;;6279206;28;20053;-62
2022/08/31 05:52:09;;;;;;;6.78;5.68;;;;;;;;;;6277186;28;20357;-65
2022/08/31 05:55:11;;;;;;;8.55;5.90;;;;;;;;;;6279185;28;20069;-62
2022/08/31 05:58:14;;;;;;;7.97;5.60;;;;;;;;;;6277743;28;20057;-61
2022/08/31 06:01:18;;;;;;;7.28;5.55;;;;;;;;;;6276475;28;20061;-63
2022/08/31 06:04:19;;;;;;;;;;;;;;;;;;6279129;28;20049;-61
2022/08/31 06:07:21;;;;;;;8.82;5.32;;;;;;;;;;6278195;28;19924;-62
2022/08/31 06:10:22;;;;;;;10.75;5.97;;;;;;;;;;6271893;28;20320;-63
2022/08/31 06:13:25;;;;;;;7.70;5.88;;;;;;;;;;6276737;28;20049;-64
2022/08/31 06:16:28;;;;;;;12.57;7.10;;;;;;;;;;6277715;28;20053;-60
2022/08/31 06:19:30;;;;;;;12.77;6.38;;;;;;;;;;6276651;28;20045;-63
2022/08/31 06:22:34;;;;;;;11.07;6.35;;;;;;;;;;6275211;28;20492;-64
2022/08/31 06:25:36;;;;;;;13.27;7.60;;;;;;;;;;6276107;28;20064;-63
2022/08/31 06:28:40;;;;;;;9.90;7.60;;;;;;;;;;6276341;28;20064;-64
2022/08/31 06:31:45;;;;;;;12.23;9.00;;;;;;;;;;6278081;28;20051;-61
2022/08/31 06:34:47;;;;;;;13.70;9.52;;;;;;;;;;6275216;28;20300;-62
2022/08/31 06:37:49;;;;;;;12.10;10.32;;;;;;;;;;6277706;28;20056;-62
2022/08/31 06:40:50;;;;;;;15.05;10.10;;;;;;;;;;6273453;28;20065;-61
2022/08/31 06:43:54;;;;;;;11.85;9.27;;;;;;;;;;6276525;28;20282;-61
2022/08/31 06:46:56;;;;;;;;;;;;;;;;;;6272817;28;20087;-64
2022/08/31 06:49:57;;;;;;;12.50;9.95;;;;;;;;;;6279563;28;19970;-61
2022/08/31 06:52:59;;;;;;;14.52;11.35;;;;;;;;;;6276538;28;20040;-62
2022/08/31 06:56:04;;;;;;;15.18;12.10;;;;;;;;;;6272945;28;20057;-62
2022/08/31 06:59:07;;;;;;;17.30;12.07;;;;;;;;;;6279075;28;20091;-61
2022/08/31 07:02:09;;;;;;;14.98;11.80;;;;;;;;;;6280652;28;20053;-61
2022/08/31 07:05:11;;;;;;;16.77;13.10;;;;;;;;;;6277359;28;20057;-61
2022/08/31 07:08:12;;;;;;;20.15;13.95;;;;;;;;;;6276515;28;20057;-62
2022/08/31 07:11:16;;;;;;;20.02;15.13;;;;;;;;;;6274418;28;20075;-63
2022/08/31 07:14:21;;;;;;;17.02;14.57;;;;;;;;;;6273436;28;20078;-63
2022/08/31 07:17:23;;;;;;;20.83;16.35;;;;;;;;;;6276317;28;20053;-61
2022/08/31 07:20:25;;;;;;;19.40;16.30;;;;;;;;;;6279061;28;20045;-63
2022/08/31 07:23:26;;;;;;;14.25;12.75;;;;;;;;;;6277876;28;20060;-62
2022/08/31 07:26:31;;;;;;;16.83;12.45;;;;;;;;;;6273055;28;20310;-63
2022/08/31 07:29:39;;;;;;;12.73;10.05;;;;;;;;;;6275330;28;20102;-63
2022/08/31 07:32:41;;;;;;;11.48;9.68;;;;;;;;;;6275556;28;20060;-62
2022/08/31 07:35:43;;;;;;;9.63;8.63;;;;;;;;;;6277202;28;20052;-63
2022/08/31 07:42:11;;;;;;;8.23;7.43;;;;;;;;;;6275985;28;20041;-62
2022/08/31 07:45:20;;;;;;;8.52;7.30;;;;;;;;;;6277626;28;20060;-62
2022/08/31 07:48:22;;;;;;;9.18;7.07;;;;;;;;;;6276552;28;20072;-63
2022/08/31 07:51:24;;;;;;;15.23;8.63;;;;;;;;;;6276231;28;20332;-62
2022/08/31 07:54:27;;;;;;;13.25;9.82;;;;;;;;;;6275216;28;20040;-62
2022/08/31 07:57:30;;;;;;;15.18;11.18;;;;;;;;;;6279614;28;20397;-62
2022/08/31 08:00:34;;;;;;;15.67;11.70;;;;;;;;;;6279470;28;20143;-62
2022/08/31 08:03:42;;;;;;;13.18;11.07;;;;;;;;;;6279829;28;20545;-62
2022/08/31 08:06:44;;;;;;;14.63;12.23;;;;;;;;;;6282359;28;20108;-62
2022/08/31 08:09:46;;;;;;;17.42;13.77;;;;;;;;;;6282122;28;20049;-63
2022/08/31 08:12:56;;;;;;;16.30;13.77;;;;;;;;;;6280927;28;20053;-62
2022/08/31 08:15:58;;;;;;;16.00;13.38;;;;;;;;;;6278968;28;20393;-62
2022/08/31 08:19:00;;;;;;;17.50;15.35;;;;;;;;;;6282443;28;20259;-63
2022/08/31 08:22:02;;;;;;;18.13;13.52;;;;;;;;;;6281489;28;20110;-64
2022/08/31 08:25:05;;;;;;;17.70;14.63;;;;;;;;;;6280590;28;20159;-64
2022/08/31 08:28:07;;;;;;;18.88;12.82;;;;;;;;;;6280431;28;20292;-64
2022/08/31 08:31:21;;;;;;;14.65;12.20;;;;;;;;;;6279493;28;20067;-66
2022/08/31 08:34:24;;;;;;;13.50;10.48;;;;;;;;;;6279194;28;20116;-64
2022/08/31 08:37:27;;;;;;;13.10;10.57;;;;;;;;;;6282030;28;20103;-63
2022/08/31 08:40:31;;;;;;;14.23;10.23;;;;;;;;;;6280767;28;20094;-64
2022/08/31 08:43:35;;;;;;;11.18;9.50;;;;;;;;;;6279285;28;20071;-66
2022/08/31 08:46:46;;;;;;;10.27;8.98;;;;;;;;;;6277227;28;20052;-66
2022/08/31 08:49:50;;;;;;;9.40;8.43;;;;;;;;;;6281189;28;20048;-64
2022/08/31 08:52:51;;;;;;;8.38;7.10;;;;;;;;;;6280960;28;20041;-65
2022/08/31 08:55:53;;;;;;;13.57;7.38;;;;;;;;;;6279663;28;20049;-65
2022/08/31 08:58:55;;;;;;;10.20;6.25;;;;;;;;;;6279471;28;20114;-64
2022/08/31 09:02:05;;;;;;;10.95;5.50;;;;;;;;;;6278090;28;20102;-64
2022/08/31 09:05:33;;;;;;;6.85;5.28;;;;;;;;;;6279750;28;20048;-65
2022/08/31 09:08:59;;;;;;;7.28;5.22;;;;;;;;;;6279609;28;20416;-66
2022/08/31 09:12:24;;;;;;;11.18;6.13;;;;;;;;;;6275972;28;20052;-62
2022/08/31 09:15:36;;;;;;;8.15;5.10;;;;;;;;;;6278261;28;20045;-64
2022/08/31 09:18:45;;;;;;;8.40;6.32;;;;;;;;;;6279667;28;20217;-64
2022/08/31 09:21:49;;;;;;;9.55;6.18;;;;;;;;;;6279873;28;20053;-64
2022/08/31 09:24:51;;;;;;;6.05;5.45;;;;;;;;;;6284416;28;20087;-65
2022/08/31 09:27:57;;;;;;;6.00;5.20;;;;;;;;;;6285821;28;20087;-66
2022/08/31 09:30:58;;;;;;;6.63;6.03;;;;;;;;;;6283677;28;20041;-64
2022/08/31 09:34:02;;;;;;;8.20;5.60;;;;;;;;;;6280108;28;20108;-66
2022/08/31 09:37:15;;;;;;;5.78;5.18;;;;;;;;;;6284053;28;20061;-64
2022/08/31 09:40:19;;;;;;;6.95;4.30;;;;;;;;;;6280379;28;20063;-66
2022/08/31 09:43:29;;;;;;;5.20;4.28;;;;;;;;;;6281578;28;20290;-66
2022/08/31 09:46:30;;;;;;;6.00;3.97;;;;;;;;;;6286765;28;20094;-67
2022/08/31 09:49:36;;;;;;;6.90;4.38;;;;;;;;;;6283043;28;20060;-67
2022/08/31 09:56:14;;;;;;;5.65;4.00;;;;;;;;;;6284647;28;20048;-66
2022/08/31 09:59:29;;;;;;;6.05;3.70;;;;;;;;;;6280493;28;20056;-63
2022/08/31 10:02:36;;;;;;;5.78;4.05;;;;;;;;;;6258913;28;21107;-65
2022/08/31 10:05:43;;;;;;;4.90;4.47;;;;;;;;;;6279457;28;20049;-66
2022/08/31 10:08:52;;;;;;;7.78;5.43;;;;;;;;;;6278994;28;20091;-65
2022/08/31 10:11:58;;;;;;;7.35;4.47;;;;;;;;;;6278549;28;20091;-65
2022/08/31 10:15:04;;;;;;;6.10;3.88;;;;;;;;;;6280679;28;20047;-65
2022/08/31 10:18:12;;;;;;;5.60;3.83;;;;;;;;;;6279226;28;20049;-65
2022/08/31 10:21:20;;;;;;;6.20;3.58;;;;;;;;;;6279797;28;20075;-65
2022/08/31 10:24:32;;;;;;;5.68;5.00;;;;;;;;;;6271140;28;20324;-67
2022/08/31 10:27:39;;;;;;;5.40;4.90;;;;;;;;;;6279964;28;20902;-64
2022/08/31 10:30:45;;;;;;;7.30;4.88;;;;;;;;;;6279234;28;20336;-65
2022/08/31 10:37:19;;;;;;;4.28;3.30;;;;;;;;;;6276401;28;20320;-67
2022/08/31 10:40:28;;;;;;;4.45;4.05;;;;;;;;;;6248648;28;20267;-67
2022/08/31 10:43:32;;;;;;;4.65;4.20;;;;;;;;;;6270210;28;20049;-64
2022/08/31 10:46:34;;;;;;;6.05;5.45;;;;;;;;;;6279863;28;20056;-65
2022/08/31 10:49:38;;;;;;;;;;;;;;;;;;6275136;28;20052;-64
2022/08/31 10:52:52;;;;;;;5.18;4.68;;;;;;;;;;6273787;28;20144;-66
2022/08/31 10:55:58;;;;;;;5.65;3.92;;;;;;;;;;6273829;28;20461;-65
2022/08/31 10:59:09;;;;;;;5.72;4.32;;;;;;;;;;6273251;28;20131;-65
2022/08/31 11:02:43;;;;;;;5.78;4.03;;;;;;;;;;6272419;28;20052;-67
2022/08/31 11:05:48;;;;;;;6.03;4.22;;;;;;;;;;6274526;28;20052;-65
2022/08/31 11:08:56;;;;;;;5.75;4.93;;;;;;;;;;6271631;28;20274;-65
2022/08/31 11:12:05;;;;;;;5.32;4.32;;;;;;;;;;6272911;28;20493;-65
2022/08/31 11:15:31;;;;;;;5.43;3.63;;;;;;;;;;6271944;28;20044;-68
2022/08/31 11:19:06;;;;;;;6.63;4.80;;;;;;;;;;6279143;28;20095;-64
2022/08/31 11:22:16;;;;;;;7.15;4.88;;;;;;;;;;6257585;28;20095;-65
2022/08/31 11:26:01;;;;;;;5.05;4.20;;;;;;;;;;6273337;28;20060;-65
2022/08/31 11:29:12;;;;;;;5.50;4.75;;;;;;;;;;6275995;28;20229;-65
2022/08/31 11:32:18;;;;;;;5.57;3.97;;;;;;;;;;6273198;28;20045;-69
2022/08/31 11:35:59;;;;;;;7.60;5.35;;;;;;;;;;6272354;28;20060;-64
2022/08/31 11:39:39;;;;;;;6.75;5.80;;;;;;;;;;6269096;28;20041;-66
2022/08/31 11:42:56;;;;;;;5.05;4.65;;;;;;;;;;6271682;28;20045;-66
2022/08/31 11:46:00;;;;;;;5.05;4.57;;;;;;;;;;6276056;28;20286;-66
2022/08/31 11:49:01;;;;;;;8.90;6.38;;;;;;;;;;6279039;28;20056;-65
2022/08/31 11:52:12;;;;;;;6.28;5.68;;;;;;;;;;6276757;28;20072;-66
2022/08/31 11:55:27;;;;;;;8.25;4.90;;;;;;;;;;6277339;28;20232;-67
2022/08/31 11:58:33;;;;;;;5.45;4.95;;;;;;;;;;6276358;28;20813;-67
2022/08/31 12:01:41;;;;;;;6.45;4.90;;;;;;;;;;6279435;28;20079;-68
2022/08/31 12:05:01;;;;;;;6.03;4.85;;;;;;;;;;6278505;28;20054;-67
2022/08/31 12:08:14;;;;;;;5.80;4.50;;;;;;;;;;6278738;28;20049;-66
2022/08/31 12:11:18;;;;;;;5.55;4.70;;;;;;;;;;6278323;28;20075;-66
2022/08/31 12:14:25;;;;;;;6.53;5.85;;;;;;;;;;6279074;28;20053;-66
2022/08/31 12:17:29;;;;;;;5.15;4.68;;;;;;;;;;6277925;28;20409;-67
2022/08/31 12:24:15;;;;;;;4.18;3.53;;;;;;;;;;6278033;28;20056;-67
2022/08/31 12:27:25;;;;;;;6.60;4.53;;;;;;;;;;6276556;28;20053;-66
2022/08/31 12:30:29;;;;;;;5.03;4.53;;;;;;;;;;6277310;28;20122;-67
2022/08/31 12:33:31;;;;;;;5.00;4.22;;;;;;;;;;6271208;28;20048;-66
2022/08/31 13:00:42;;;;;;;5.00;3.63;;;;;;;;;;6333771;27;20485;-67
2022/08/31 13:03:46;;;;;;;7.45;4.75;;;;;;;;;;6323262;28;20047;-67
2022/08/31 13:06:48;;;;;;;4.78;4.15;;;;;;;;;;6322745;28;20086;-66
2022/08/31 13:10:03;;;;;;;4.75;3.50;;;;;;;;;;6322249;28;20052;-67
2022/08/31 13:13:07;;;;;;;4.72;3.63;;;;;;;;;;6325641;28;20043;-69
2022/08/31 13:16:12;;;;;;;3.80;3.50;;;;;;;;;;6321127;28;20228;-72
2022/08/31 13:19:24;;;;;;;5.13;3.47;;;;;;;;;;6326678;28;20052;-68
2022/08/31 13:22:29;;;;;;;5.75;5.22;;;;;;;;;;6320104;28;20059;-68
2022/08/31 13:25:35;;;;;;;4.53;3.88;;;;;;;;;;6326621;28;20043;-70
2022/08/31 13:28:37;;;;;;;5.28;4.68;;;;;;;;;;6323867;28;20063;-70
2022/08/31 13:31:49;;;;;;;6.07;4.30;;;;;;;;;;6328278;28;20044;-68
2022/08/31 13:34:51;;;;;;;5.35;3.80;;;;;;;;;;6333376;28;20051;-68
2022/08/31 13:38:02;;;;;;;5.20;4.50;;;;;;;;;;6328230;28;20060;-69
2022/08/31 13:41:09;;;;;;;5.60;5.10;;;;;;;;;;6330561;28;20111;-66
2022/08/31 13:44:12;;;;;;;6.68;4.57;;;;;;;;;;6332822;28;20056;-67
2022/08/31 13:47:19;;;;;;;4.78;4.28;;;;;;;;;;6326083;28;20032;-66
2022/08/31 13:50:24;;;;;;;4.45;3.75;;;;;;;;;;6326963;28;20060;-69
2022/08/31 13:53:45;;;;;;;5.05;4.55;;;;;;;;;;6324725;28;20040;-67
2022/08/31 13:56:57;;;;;;;4.65;4.05;;;;;;;;;;6319945;28;20051;-67
2022/08/31 14:00:28;;;;;;;3.70;3.40;;;;;;;;;;6340522;28;20055;-67
2022/08/31 14:03:44;;;;;;;4.50;4.10;;;;;;;;;;6352854;28;20051;-67
2022/08/31 14:06:51;;;;;;;5.60;4.93;;;;;;;;;;6348200;28;20099;-66
2022/08/31 14:09:56;;;;;;;4.35;3.85;;;;;;;;;;6343193;28;20101;-67
2022/08/31 14:12:59;;;;;;;4.78;4.25;;;;;;;;;;6330231;28;20067;-66
2022/08/31 14:16:01;;;;;;;7.28;5.63;;;;;;;;;;6338606;28;20239;-67
2022/08/31 14:19:05;;;;;;;6.35;4.78;;;;;;;;;;6334303;28;20292;-66
2022/08/31 14:22:16;;;;;;;4.40;4.00;;;;;;;;;;6332202;28;21800;-66
2022/08/31 14:25:20;;;;;;;4.85;3.72;;;;;;;;;;6305254;28;20044;-67
2022/08/31 14:28:35;;;;;;;5.40;3.95;;;;;;;;;;6302969;28;20830;-69
2022/08/31 14:31:38;;;;;;;6.63;5.32;;;;;;;;;;6303545;28;20054;-67
2022/08/31 14:34:46;;;;;;;4.45;4.05;;;;;;;;;;6305283;28;20277;-66
2022/08/31 14:37:47;;;;;;;4.50;3.97;;;;;;;;;;6313381;28;20105;-67
2022/08/31 14:40:49;;;;;;;6.88;4.40;;;;;;;;;;6303375;28;20060;-66
2022/08/31 14:43:51;;;;;;;8.70;4.88;;;;;;;;;;6298927;28;20155;-67
2022/08/31 14:46:52;;;;;;;5.88;4.32;;;;;;;;;;6329649;28;20119;-70
2022/08/31 14:50:04;;;;;;;6.78;5.05;;;;;;;;;;6327177;28;20048;-65
2022/08/31 14:53:10;;;;;;;6.95;5.43;;;;;;;;;;6331275;28;20043;-65
2022/08/31 14:56:16;;;;;;;5.68;4.53;;;;;;;;;;6332248;28;20068;-67
2022/08/31 14:59:20;;;;;;;5.68;4.50;;;;;;;;;;6331889;28;20098;-67
2022/08/31 15:02:21;;;;;;;5.45;4.80;;;;;;;;;;6330317;28;20044;-67
2022/08/31 15:05:25;;;;;;;4.67;3.87;;;;;;;;;;6330276;28;20052;-67
2022/08/31 15:08:27;;;;;;;5.10;4.28;;;;;;;;;;6331350;28;20473;-67
2022/08/31 15:11:33;;;;;;;7.18;6.25;;;;;;;;;;6330836;28;20070;-67
2022/08/31 15:14:36;;;;;;;4.80;4.38;;;;;;;;;;6330556;28;20051;-67
2022/08/31 15:17:39;;;;;;;4.35;3.70;;;;;;;;;;6329851;28;20050;-67
2022/08/31 15:20:42;;;;;;;6.35;3.55;;;;;;;;;;6330674;28;20117;-67
2022/08/31 15:23:46;;;;;;;4.80;4.00;;;;;;;;;;6324923;28;20105;-67
2022/08/31 15:26:48;;;;;;;5.05;4.03;;;;;;;;;;6330477;28;20287;-68
2022/08/31 15:30:01;;;;;;;4.88;3.33;;;;;;;;;;6328886;28;20056;-67
2022/08/31 15:33:03;;;;;;;5.30;4.50;;;;;;;;;;6331551;28;20266;-67
2022/08/31 15:36:07;;;;;;;;;;;;;;;;;;6330034;28;20134;-67
2022/08/31 15:39:09;;;;;;;3.95;3.65;;;;;;;;;;6332351;28;19916;-68
2022/08/31 15:42:12;;;;;;;4.57;4.18;;;;;;;;;;6328894;28;20052;-66
2022/08/31 15:45:13;;;;;;;5.38;4.18;;;;;;;;;;6327680;28;20081;-65
2022/08/31 15:51:47;;;;;;;6.85;4.60;;;;;;;;;;6327238;28;20327;-65
2022/08/31 15:54:50;;;;;;;5.35;4.85;;;;;;;;;;6327164;28;20052;-66
2022/08/31 15:57:53;;;;;;;4.07;3.70;;;;;;;;;;6332937;28;20392;-65
2022/08/31 16:00:55;;;;;;;5.35;3.85;;;;;;;;;;6330274;28;20047;-67
2022/08/31 16:03:58;;;;;;;5.38;4.38;;;;;;;;;;6329624;28;20570;-65
2022/08/31 16:07:03;;;;;;;5.43;4.22;;;;;;;;;;6330717;28;20052;-65
2022/08/31 16:10:11;;;;;;;5.03;4.53;;;;;;;;;;6328013;28;20070;-67
2022/08/31 16:13:14;;;;;;;5.03;4.15;;;;;;;;;;6300219;28;20042;-66
2022/08/31 16:16:17;;;;;;;5.75;4.53;;;;;;;;;;6302606;28;20063;-67
2022/08/31 16:19:19;;;;;;;5.43;4.82;;;;;;;;;;6296435;28;20098;-66
2022/08/31 16:22:22;;;;;;;5.10;3.93;;;;;;;;;;6301979;28;20048;-65
2022/08/31 16:25:24;;;;;;;5.72;4.07;;;;;;;;;;6312991;28;20053;-65
2022/08/31 16:28:25;;;;;;;4.93;3.72;;;;;;;;;;6306052;28;20086;-65
2022/08/31 16:31:29;;;;;;;5.85;4.90;;;;;;;;;;6303828;28;20047;-65
2022/08/31 16:34:30;;;;;;;4.88;4.07;;;;;;;;;;6302847;28;20060;-68
2022/08/31 16:37:34;;;;;;;5.27;4.37;;;;;;;;;;6306069;28;20086;-65
2022/08/31 16:40:36;;;;;;;5.57;4.20;;;;;;;;;;6302139;28;20048;-66
2022/08/31 16:43:38;;;;;;;5.50;4.82;;;;;;;;;;6304476;28;20444;-68
2022/08/31 16:46:40;;;;;;;5.00;4.15;;;;;;;;;;6303506;28;20111;-66
2022/08/31 16:49:42;;;;;;;5.15;3.97;;;;;;;;;;6305473;28;20347;-67
2022/08/31 16:52:46;;;;;;;5.80;5.10;;;;;;;;;;6302797;28;20049;-68
2022/08/31 16:55:47;;;;;;;5.57;4.63;;;;;;;;;;6299457;28;20328;-66
2022/08/31 16:58:49;;;;;;;6.47;5.53;;;;;;;;;;6303111;28;20053;-66
2022/08/31 17:01:51;;;;;;;5.82;4.75;;;;;;;;;;6312380;28;20058;-66
2022/08/31 17:04:53;;;;;;;5.95;5.15;;;;;;;;;;6308998;28;20429;-65
2022/08/31 17:07:56;;;;;;;6.25;5.60;;;;;;;;;;6305486;28;20099;-65
2022/08/31 17:11:01;;;;;;;6.18;5.25;;;;;;;;;;6306178;28;20044;-65
2022/08/31 17:14:05;;;;;;;8.82;6.57;;;;;;;;;;6301407;28;20057;-65
2022/08/31 17:17:07;;;;;;;10.20;7.30;;;;;;;;;;6316472;28;20049;-65
2022/08/31 17:20:11;;;;;;;9.27;6.38;;;;;;;;;;6303110;28;20044;-66
2022/08/31 17:23:15;;;;;;;8.45;6.35;;;;;;;;;;6301587;28;20327;-66
2022/08/31 17:26:18;;;;;;;9.02;7.45;;;;;;;;;;6302614;28;20335;-67
2022/08/31 17:29:21;;;;;;;8.77;7.50;;;;;;;;;;6300859;28;20056;-67
2022/08/31 17:32:24;;;;;;;7.80;7.00;;;;;;;;;;6301796;28;20052;-65
2022/08/31 17:35:26;;;;;;;8.43;7.50;;;;;;;;;;6302698;28;20102;-65
2022/08/31 17:38:29;;;;;;;6.85;6.13;;;;;;;;;;6302163;28;20056;-65
2022/08/31 17:41:31;;;;;;;;;;;;;;;;;;6304172;28;20125;-65
2022/08/31 17:44:33;;;;;;;7.00;6.20;;;;;;;;;;6297784;28;19927;-67
2022/08/31 17:47:35;;;;;;;6.20;5.60;;;;;;;;;;6313396;28;20051;-65
2022/08/31 17:50:41;;;;;;;6.28;4.95;;;;;;;;;;6309665;28;20389;-65
2022/08/31 17:53:45;;;;;;;6.75;6.05;;;;;;;;;;6315117;28;20072;-65
2022/08/31 17:56:49;;;;;;;8.52;6.72;;;;;;;;;;6302596;28;20073;-68
2022/08/31 17:59:51;;;;;;;9.35;7.90;;;;;;;;;;6297568;28;20056;-65
2022/08/31 18:02:53;;;;;;;8.68;7.03;;;;;;;;;;6303314;28;20378;-65
2022/08/31 18:05:55;;;;;;;8.52;7.25;;;;;;;;;;6305650;28;20052;-65
2022/08/31 18:08:59;;;;;;;8.60;7.05;;;;;;;;;;6306880;28;20044;-65
2022/08/31 18:12:01;;;;;;;9.30;7.40;;;;;;;;;;6310402;28;20060;-67
2022/08/31 18:15:03;;;;;;;7.80;6.95;;;;;;;;;;6310130;28;20040;-67
2022/08/31 18:18:04;;;;;;;9.05;6.25;;;;;;;;;;6310330;28;20059;-66
2022/08/31 18:21:07;;;;;;;9.95;7.25;;;;;;;;;;6297118;28;20060;-67
2022/08/31 18:24:10;;;;;;;8.60;7.07;;;;;;;;;;6306992;28;20056;-66
2022/08/31 18:27:14;;;;;;;9.43;6.75;;;;;;;;;;6306702;28;20032;-67
2022/08/31 18:30:17;;;;;;;7.72;6.88;;;;;;;;;;6302348;28;20049;-67
2022/08/31 18:33:19;;;;;;;7.93;6.60;;;;;;;;;;6302976;28;20068;-67
2022/08/31 18:36:22;;;;;;;10.40;7.07;;;;;;;;;;6302818;28;20512;-66
2022/08/31 18:39:30;;;;;;;9.73;6.00;;;;;;;;;;6296935;28;20090;-68
2022/08/31 18:45:50;;;;;;;8.98;7.10;;;;;;;;;;6302190;28;20080;-68
2022/08/31 18:48:55;;;;;;;10.10;6.32;;;;;;;;;;6295663;28;20332;-67
2022/08/31 18:51:56;;;;;;;11.63;6.55;;;;;;;;;;6297774;28;20048;-66
2022/08/31 18:54:59;;;;;;;6.32;5.47;;;;;;;;;;6304760;28;20056;-67
2022/08/31 18:58:01;;;;;;;;;;;;;;;;;;6309859;28;20114;-68
2022/08/31 19:01:04;;;;;;;6.20;5.60;;;;;;;;;;6295275;28;19974;-67
2022/08/31 19:04:07;;;;;;;8.40;6.78;;;;;;;;;;6297464;28;20052;-67
2022/08/31 19:07:08;;;;;;;9.90;7.53;;;;;;;;;;6300011;28;20049;-67
2022/08/31 19:10:13;;;;;;;11.10;7.28;;;;;;;;;;6297600;28;20061;-69